Time;durP1;ratioP1;P1;durP2;ratioP2;P2;SDS_P1;SDS_P2;PMS_P1;PMS_P2;Temp;Humidity;BMP_temperature;BMP_pressure;BME280_temperature;BME280_humidity;BME280_pressure;Samples;Min_cycle;Max_cycle;Signal;HPM_P1;HPM_P2
2022/11/01 00:02:10;;;;;;;13.63;3.53;;;11.20;99.90;;;11.33;100.00;100419.13;5027254;28;20300;-82
2022/11/01 00:04:37;;;;;;;15.15;3.80;;;11.20;99.90;;;11.34;100.00;100426.19;5028015;28;20223;-82
2022/11/01 00:07:05;;;;;;;14.32;4.00;;;11.30;99.90;;;11.30;100.00;100424.41;5028086;28;20258;-81
2022/11/01 00:09:32;;;;;;;15.63;3.80;;;11.20;99.90;;;11.34;100.00;100418.25;5028680;28;20592;-81
2022/11/01 00:11:59;;;;;;;12.20;2.97;;;11.20;99.90;;;11.37;100.00;100423.56;5027026;28;20253;-81
2022/11/01 00:14:26;;;;;;;14.40;3.33;;;11.30;99.90;;;11.36;100.00;100412.09;5036733;28;20265;-81
2022/11/01 00:16:53;;;;;;;8.25;2.80;;;11.30;99.90;;;11.41;100.00;100418.31;5051800;28;20313;-80
2022/11/01 00:19:20;;;;;;;16.17;3.72;;;11.30;99.90;;;11.35;100.00;100412.09;5049105;28;20238;-81
2022/11/01 00:21:47;;;;;;;13.45;3.28;;;11.30;99.90;;;11.33;100.00;100414.72;5025483;28;20270;-81
2022/11/01 00:24:14;;;;;;;14.82;3.38;;;11.20;99.90;;;11.36;100.00;100420.03;5037227;28;20317;-81
2022/11/01 00:26:42;;;;;;;15.35;3.53;;;11.30;99.90;;;11.35;100.00;100404.13;5033246;28;20254;-81
2022/11/01 00:29:11;;;;;;;18.33;4.28;;;11.30;99.90;;;11.34;100.00;100412.97;5029988;28;20237;-82
2022/11/01 00:31:38;;;;;;;15.82;3.80;;;11.20;99.90;;;11.41;100.00;100407.72;5020149;28;20291;-81
2022/11/01 00:34:05;;;;;;;14.25;3.47;;;11.30;99.90;;;11.47;100.00;100414.78;5037208;28;20293;-81
2022/11/01 00:36:34;;;;;;;15.30;3.63;;;11.20;99.90;;;11.49;100.00;100427.16;5051232;28;20230;-82
2022/11/01 00:39:02;;;;;;;13.77;3.22;;;11.40;99.90;;;11.56;100.00;100428.09;5045358;28;20246;-81
2022/11/01 00:41:29;;;;;;;17.98;4.07;;;11.40;99.90;;;11.61;100.00;100422.81;5030901;28;20687;-81
2022/11/01 00:43:57;;;;;;;15.10;3.47;;;11.50;99.90;;;11.61;100.00;100418.41;5031120;28;20281;-81
2022/11/01 00:46:24;;;;;;;14.25;3.35;;;11.50;99.90;;;11.65;100.00;100419.28;5030089;28;20239;-81
2022/11/01 00:48:51;;;;;;;13.95;3.20;;;11.60;99.90;;;11.79;100.00;100433.56;5032320;28;20273;-82
2022/11/01 00:51:18;;;;;;;15.57;3.60;;;11.60;99.90;;;11.87;100.00;100429.16;5030630;28;20231;-81
2022/11/01 00:53:45;;;;;;;13.90;3.58;;;11.70;99.90;;;11.92;100.00;100430.06;5023800;28;20258;-82
2022/11/01 00:56:12;;;;;;;15.35;3.60;;;11.80;99.90;;;11.97;100.00;100423.00;5011352;28;20306;-81
2022/11/01 00:58:39;;;;;;;13.80;3.25;;;11.80;99.90;;;11.98;100.00;100422.13;5004099;28;20242;-81
2022/11/01 01:01:06;;;;;;;15.68;3.72;;;11.90;99.90;;;12.04;100.00;100423.91;5013454;28;20262;-82
2022/11/01 01:03:34;;;;;;;14.90;3.55;;;11.90;99.90;;;12.04;100.00;100438.06;5030635;28;20227;-81
2022/11/01 01:06:01;;;;;;;15.93;3.80;;;11.90;99.90;;;11.99;100.00;100433.63;5027762;28;20262;-81
2022/11/01 01:08:30;;;;;;;16.60;3.97;;;11.90;99.90;;;12.03;100.00;100435.41;5031229;28;20266;-81
2022/11/01 01:11:11;;;;;;;18.10;4.15;;;11.90;99.90;;;12.06;100.00;100428.34;5029525;28;20687;-81
2022/11/01 01:13:38;;;;;;;17.67;4.13;;;11.90;99.90;;;12.13;100.00;100440.72;5029601;28;20258;-81
2022/11/01 01:16:10;;;;;;;19.40;4.10;;;12.00;99.90;;;12.17;100.00;100436.31;5030467;28;20285;-80
2022/11/01 01:18:38;;;;;;;16.38;3.90;;;12.00;99.90;;;12.14;100.00;100429.25;5013138;28;20313;-81
2022/11/01 01:21:06;;;;;;;15.55;3.67;;;12.00;99.90;;;12.17;100.00;100439.84;5031256;28;20227;-81
2022/11/01 01:23:34;;;;;;;16.50;3.80;;;12.10;99.90;;;12.10;100.00;100438.06;5030166;28;20256;-82
2022/11/01 01:26:06;;;;;;;16.98;3.75;;;12.00;99.90;;;12.07;100.00;100435.41;5012358;28;20779;-81
2022/11/01 01:28:33;;;;;;;16.75;3.75;;;12.00;99.90;;;12.13;100.00;100434.53;5029643;28;20382;-81
2022/11/01 01:31:08;;;;;;;15.00;3.27;;;12.00;99.90;;;12.16;100.00;100439.84;5010975;28;20232;-81
2022/11/01 01:33:35;;;;;;;16.13;4.35;;;12.00;99.90;;;12.17;100.00;100445.16;5023359;28;20277;-81
2022/11/01 01:36:05;;;;;;;16.45;3.78;;;12.10;99.90;;;12.18;100.00;100448.69;5029477;28;20250;-81
2022/11/01 01:38:32;;;;;;;16.73;4.00;;;12.10;99.90;;;12.18;100.00;100451.34;5031068;28;20262;-80
2022/11/01 01:41:54;;;;;;;16.42;3.90;;;12.10;99.90;;;12.20;100.00;100454.00;5028500;28;20249;-81
2022/11/01 01:43:47;;;;;;;15.05;3.40;;;12.10;99.90;;;12.20;100.00;100446.94;5012300;28;20321;-81
2022/11/01 01:46:14;;;;;;;14.15;3.20;;;12.10;99.90;;;12.21;100.00;100440.75;5030452;28;20251;-81
2022/11/01 01:48:47;;;;;;;15.35;3.67;;;12.10;99.90;;;12.18;100.00;100433.69;5029824;28;20618;-81
2022/11/01 01:51:19;;;;;;;14.32;3.47;;;12.10;99.90;;;12.19;100.00;100437.22;5012657;28;20284;-81
2022/11/01 01:53:52;;;;;;;14.70;4.07;;;12.10;99.90;;;12.16;100.00;100426.59;5011917;28;20316;-81
2022/11/01 01:56:30;;;;;;;15.25;3.55;;;12.10;99.90;;;12.24;100.00;100432.81;4993105;28;20267;-81
2022/11/01 01:59:03;;;;;;;19.20;4.38;;;12.10;99.90;;;12.25;100.00;100437.22;5004221;28;20384;-81
2022/11/01 02:01:32;;;;;;;16.30;3.78;;;12.10;99.90;;;12.24;100.00;100432.81;5011612;28;20318;-81
2022/11/01 02:04:00;;;;;;;16.27;3.75;;;12.10;99.90;;;12.18;100.00;100436.31;4992780;28;20227;-81
2022/11/01 02:06:27;;;;;;;16.08;3.75;;;12.10;99.90;;;12.25;100.00;100437.22;5011776;28;20314;-81
2022/11/01 02:09:00;;;;;;;15.73;3.58;;;12.10;99.90;;;12.21;100.00;100429.25;5028473;28;20226;-81
2022/11/01 02:11:27;;;;;;;16.30;3.80;;;12.10;99.90;;;12.18;100.00;100431.03;5011606;28;20285;-80
2022/11/01 02:13:56;;;;;;;15.32;3.80;;;12.10;99.90;;;12.22;100.00;100433.69;5030272;28;20262;-81
2022/11/01 02:16:48;;;;;;;13.55;3.10;;;12.10;99.90;;;12.32;100.00;100441.66;5011460;28;20258;-81
2022/11/01 02:19:50;;;;;;;13.23;3.15;;;12.20;99.90;;;12.36;100.00;100445.19;5012219;28;20231;-81
2022/11/01 02:23:03;;;;;;;15.80;3.53;;;12.20;99.90;;;12.40;100.00;100462.88;5028765;28;20592;-81
2022/11/01 02:25:40;;;;;;;15.18;3.72;;;12.20;99.90;;;12.43;100.00;100458.47;5012734;28;20231;-81
2022/11/01 02:28:34;;;;;;;14.98;3.70;;;12.30;99.90;;;12.53;100.00;100477.94;5006984;28;20242;-81
2022/11/01 02:31:25;;;;;;;15.68;3.78;;;12.40;99.90;;;12.61;100.00;100504.50;5031680;28;20257;-81
2022/11/01 02:34:00;;;;;;;15.90;3.53;;;12.50;99.90;;;12.66;100.00;100513.34;5035503;28;20230;-81
2022/11/01 02:36:47;;;;;;;15.27;3.60;;;12.50;99.90;;;12.72;100.00;100516.00;5007560;28;20578;-82
2022/11/01 02:39:21;;;;;;;13.73;3.10;;;12.60;99.90;;;12.72;100.00;100527.50;4992517;28;20306;-84
2022/11/01 02:42:26;;;;;;;11.95;2.83;;;12.60;99.90;;;12.74;100.00;100528.38;4984591;28;20314;-83
2022/11/01 02:45:30;;;;;;;14.45;3.38;;;12.60;99.90;;;12.74;100.00;100516.88;5010640;28;20288;-82
2022/11/01 02:47:59;;;;;;;15.15;3.58;;;12.60;99.90;;;12.81;100.00;100534.59;4987390;28;20729;-83
2022/11/01 02:50:32;;;;;;;13.73;3.20;;;12.70;99.90;;;12.88;100.00;100543.44;5012383;28;20254;-83
2022/11/01 02:53:00;;;;;;;15.05;3.58;;;12.70;99.90;;;12.92;100.00;100550.53;4996170;28;20634;-83
2022/11/01 02:55:32;;;;;;;14.98;3.90;;;12.80;99.90;;;12.98;100.00;100550.53;4992011;28;20327;-83
2022/11/01 02:58:33;;;;;;;14.50;3.55;;;12.80;99.90;;;13.04;100.00;100555.88;5018911;28;20675;-82
2022/11/01 03:01:00;;;;;;;15.05;3.55;;;12.90;99.90;;;13.06;100.00;100565.63;4995495;28;20306;-83
2022/11/01 03:03:34;;;;;;;13.95;3.35;;;12.90;99.90;;;13.18;100.00;100559.47;5021820;28;20238;-83
2022/11/01 03:06:11;;;;;;;14.05;3.50;;;13.00;99.90;;;13.24;100.00;100555.94;4992115;28;20335;-82
2022/11/01 03:08:48;;;;;;;12.85;3.17;;;13.10;99.90;;;13.26;100.00;100552.38;5003218;28;20310;-81
2022/11/01 03:11:18;;;;;;;12.63;3.03;;;13.10;99.90;;;13.29;100.00;100556.81;5010825;28;20250;-82
2022/11/01 03:14:18;;;;;;;12.80;3.33;;;13.10;99.90;;;13.29;100.00;100552.38;4987755;28;20333;-82
2022/11/01 03:17:22;;;;;;;13.88;3.28;;;13.20;99.90;;;13.29;100.00;100556.81;5009921;28;20239;-83
2022/11/01 03:20:21;;;;;;;13.05;3.13;;;13.20;99.90;;;13.28;100.00;100563.00;4999126;28;20295;-82
2022/11/01 03:22:59;;;;;;;15.38;3.55;;;13.10;99.90;;;13.24;100.00;100553.28;5028541;28;20269;-83
2022/11/01 03:25:43;;;;;;;13.20;4.25;;;13.10;99.90;;;13.20;100.00;100552.38;5008166;28;20267;-83
2022/11/01 03:28:38;;;;;;;13.55;3.30;;;13.10;99.90;;;13.19;100.00;100555.94;5011427;28;20249;-83
2022/11/01 03:31:14;;;;;;;16.98;4.05;;;13.10;99.90;;;13.17;100.00;100560.34;5000940;28;20258;-82
2022/11/01 03:33:47;;;;;;;20.13;4.75;;;13.10;99.90;;;13.19;100.00;100565.66;5001507;28;20300;-83
2022/11/01 03:36:18;;;;;;;13.35;3.20;;;13.00;99.90;;;13.22;100.00;100565.66;5003044;28;20322;-82
2022/11/01 03:38:56;;;;;;;13.13;3.38;;;13.10;99.90;;;13.23;100.00;100563.00;5011155;28;20312;-82
2022/11/01 03:41:26;;;;;;;14.05;3.50;;;13.10;99.90;;;13.27;100.00;100570.09;5007702;28;20302;-82
2022/11/01 03:43:54;;;;;;;11.77;2.80;;;13.10;99.90;;;13.30;100.00;100574.53;4996267;28;20314;-82
2022/11/01 03:46:21;;;;;;;13.38;3.25;;;13.10;99.90;;;13.30;100.00;100564.78;5007997;28;20321;-82
2022/11/01 03:48:48;;;;;;;13.80;3.30;;;13.20;99.90;;;13.27;100.00;100571.88;5011710;28;20314;-83
2022/11/01 03:51:15;;;;;;;11.40;2.80;;;13.20;99.90;;;13.31;100.00;100577.19;5028860;28;20249;-82
2022/11/01 03:53:42;;;;;;;15.80;3.90;;;13.20;99.90;;;13.31;100.00;100574.53;5033202;28;20269;-83
2022/11/01 03:56:10;;;;;;;16.88;4.13;;;13.20;99.90;;;13.30;100.00;100580.72;5031654;28;20234;-83
2022/11/01 03:58:44;;;;;;;15.60;3.95;;;13.20;99.90;;;13.31;100.00;100581.59;5025024;28;20235;-83
2022/11/01 04:01:14;;;;;;;15.10;4.00;;;13.20;99.90;;;13.30;100.00;100587.81;5031791;28;20227;-83
2022/11/01 04:03:42;;;;;;;15.43;3.72;;;13.20;99.90;;;13.32;100.00;100596.66;5033265;28;20250;-82
2022/11/01 04:06:09;;;;;;;17.25;4.20;;;13.20;99.90;;;13.31;100.00;100594.88;5031454;28;20261;-83
2022/11/01 04:08:37;;;;;;;13.73;3.38;;;13.20;99.90;;;13.32;100.00;100601.97;5033467;28;20277;-83
2022/11/01 04:11:04;;;;;;;15.88;3.72;;;13.20;99.90;;;13.32;100.00;100604.63;5052965;28;20255;-83
2022/11/01 04:13:31;;;;;;;16.50;3.72;;;13.20;99.90;;;13.32;100.00;100612.59;5027258;28;20594;-83
2022/11/01 04:21:31;;;;;;;17.15;4.00;;;13.10;99.90;;;13.28;100.00;100626.75;5017353;28;20239;-83
2022/11/01 04:23:58;;;;;;;15.27;3.58;;;13.10;99.90;;;13.27;100.00;100619.69;5013491;28;20318;-82
2022/11/01 04:26:25;;;;;;;15.63;3.58;;;13.10;99.90;;;13.31;100.00;100621.44;5014447;28;20297;-83
2022/11/01 04:28:58;;;;;;;16.40;4.32;;;13.20;99.90;;;13.32;100.00;100599.31;5030501;28;20342;-82
2022/11/01 04:31:35;;;;;;;15.90;3.70;;;13.20;99.90;;;13.34;100.00;100605.50;5031497;28;20261;-81
2022/11/01 04:34:04;;;;;;;17.05;3.92;;;13.20;99.90;;;13.33;100.00;100596.66;5025423;28;20290;-81
2022/11/01 04:36:31;;;;;;;15.07;3.63;;;13.20;99.90;;;13.42;100.00;100599.31;5031276;28;20259;-83
2022/11/01 04:38:58;;;;;;;14.48;3.53;;;13.30;99.90;;;13.45;100.00;100620.56;5039941;28;20322;-83
2022/11/01 04:41:28;;;;;;;16.13;3.67;;;13.30;99.90;;;13.58;100.00;100629.44;5027683;28;20258;-82
2022/11/01 04:43:58;;;;;;;11.50;2.72;;;13.40;99.90;;;13.72;100.00;100637.41;5036579;28;20313;-82
2022/11/01 04:46:31;;;;;;;14.20;3.70;;;13.60;99.90;;;13.75;100.00;100624.09;5045967;28;20258;-83
2022/11/01 04:48:58;;;;;;;15.80;3.70;;;13.60;99.90;;;13.68;100.00;100617.91;5013289;28;20253;-83
2022/11/01 04:51:25;;;;;;;12.77;3.15;;;13.60;99.90;;;13.64;100.00;100626.75;5051728;28;20338;-83
2022/11/01 04:53:52;;;;;;;15.75;3.75;;;13.50;99.90;;;13.62;100.00;100638.28;5029494;28;20376;-83
2022/11/01 04:56:20;;;;;;;11.40;2.80;;;13.50;99.90;;;13.62;100.00;100643.59;5031185;28;20325;-83
2022/11/01 04:58:47;;;;;;;13.52;3.40;;;13.50;99.90;;;13.59;100.00;100647.13;5027714;28;20235;-83
2022/11/01 05:01:14;;;;;;;12.18;2.97;;;13.50;99.90;;;13.53;100.00;100639.16;5025654;28;20274;-82
2022/11/01 05:03:42;;;;;;;16.15;4.60;;;13.40;99.90;;;13.51;100.00;100645.38;5020546;28;20226;-83
2022/11/01 05:06:09;;;;;;;15.43;3.65;;;13.40;99.90;;;13.52;100.00;100653.34;5012703;28;20318;-82
2022/11/01 05:08:36;;;;;;;21.85;4.97;;;13.40;99.90;;;13.49;100.00;100648.03;5030221;28;20258;-83
2022/11/01 05:11:03;;;;;;;18.23;4.28;;;13.40;99.90;;;13.48;100.00;100648.03;5011553;28;20243;-82
2022/11/01 05:13:30;;;;;;;17.65;4.20;;;13.40;99.90;;;13.49;100.00;100649.78;5011649;28;20235;-82
2022/11/01 05:16:01;;;;;;;19.73;4.55;;;13.40;99.90;;;13.49;100.00;100652.44;5022123;28;20329;-82
2022/11/01 05:18:46;;;;;;;14.25;3.30;;;13.40;99.90;;;13.50;100.00;100663.09;5033817;28;20296;-81
2022/11/01 05:21:13;;;;;;;19.25;4.40;;;13.40;99.90;;;13.52;100.00;100668.41;5032763;28;20309;-83
2022/11/01 05:23:41;;;;;;;14.25;3.47;;;13.40;99.90;;;13.53;100.00;100673.72;5035063;28;20231;-82
2022/11/01 05:26:08;;;;;;;20.20;4.82;;;13.40;99.90;;;13.51;100.00;100678.13;5028062;28;20724;-83
2022/11/01 05:28:35;;;;;;;15.73;3.67;;;13.40;99.90;;;13.56;100.00;100678.13;5031742;28;20227;-82
2022/11/01 05:31:02;;;;;;;14.20;3.30;;;13.40;99.90;;;13.54;100.00;100675.47;5031109;28;20315;-83
2022/11/01 05:33:30;;;;;;;16.52;3.90;;;13.40;99.90;;;13.56;100.00;100686.13;5023030;28;20255;-83
2022/11/01 05:36:00;;;;;;;13.93;3.42;;;13.40;99.90;;;13.59;100.00;100697.63;5042308;28;20238;-83
2022/11/01 05:38:27;;;;;;;12.00;3.03;;;13.50;99.90;;;13.55;100.00;100690.53;5031120;28;20234;-83
2022/11/01 05:40:55;;;;;;;12.80;3.20;;;13.40;99.90;;;13.51;100.00;100702.03;5029010;28;20223;-82
2022/11/01 05:43:21;;;;;;;17.40;4.10;;;13.40;99.90;;;13.51;100.00;100715.34;5026337;28;20258;-83
2022/11/01 05:45:50;;;;;;;13.95;3.15;;;13.40;99.90;;;13.51;100.00;100706.47;5040359;28;20314;-83
2022/11/01 05:48:17;;;;;;;13.35;3.38;;;13.40;99.90;;;13.53;100.00;100718.00;5036671;28;20659;-83
2022/11/01 05:50:45;;;;;;;13.85;3.40;;;13.40;99.90;;;13.53;100.00;100726.84;5048384;28;20301;-83
2022/11/01 05:53:13;;;;;;;13.18;3.17;;;13.40;99.90;;;13.54;100.00;100725.97;5050582;28;20234;-82
2022/11/01 05:55:40;;;;;;;13.55;3.25;;;13.40;99.90;;;13.55;100.00;100738.38;5037093;28;20239;-82
2022/11/01 05:58:07;;;;;;;15.15;3.65;;;13.40;99.90;;;13.54;100.00;100736.59;5031227;28;20219;-82
2022/11/01 06:00:35;;;;;;;18.35;4.80;;;13.40;99.90;;;13.57;100.00;100744.56;5022310;28;20306;-82
2022/11/01 06:03:02;;;;;;;14.70;3.50;;;13.40;99.90;;;13.56;100.00;100740.13;5020452;28;20374;-83
2022/11/01 06:05:30;;;;;;;20.08;4.22;;;13.50;99.90;;;13.57;100.00;100752.53;5029756;28;20227;-82
2022/11/01 06:08:01;;;;;;;19.27;4.25;;;13.40;99.90;;;13.59;100.00;100747.22;5010234;28;20220;-83
2022/11/01 06:10:29;;;;;;;20.27;4.50;;;13.50;99.90;;;13.62;100.00;100755.22;5005856;28;20235;-83
2022/11/01 06:12:56;;;;;;;18.23;4.30;;;13.50;99.90;;;13.60;100.00;100752.56;5025611;28;20234;-83
2022/11/01 06:15:24;;;;;;;21.25;4.75;;;13.50;99.90;;;13.62;100.00;100756.09;5026707;28;20285;-83
2022/11/01 06:17:57;;;;;;;22.73;5.45;;;13.50;99.90;;;13.66;100.00;100771.16;5013907;28;20318;-82
2022/11/01 06:20:26;;;;;;;26.83;6.50;;;13.50;99.90;;;13.64;100.00;100767.63;5010537;28;20268;-83
2022/11/01 06:22:53;;;;;;;13.23;3.50;;;13.50;99.90;;;13.65;100.00;100774.69;5028936;28;20310;-81
2022/11/01 06:25:20;;;;;;;16.63;3.78;;;13.50;99.90;;;13.65;100.00;100782.69;5028067;28;20235;-81
2022/11/01 06:27:47;;;;;;;13.93;3.25;;;13.50;99.90;;;13.63;100.00;100795.06;5020023;28;20230;-82
2022/11/01 06:30:15;;;;;;;13.35;3.40;;;13.50;99.90;;;13.65;100.00;100797.75;5003231;28;20326;-82
2022/11/01 06:32:42;;;;;;;15.82;3.80;;;13.50;99.90;;;13.67;100.00;100801.28;5012321;28;20338;-82
2022/11/01 06:35:10;;;;;;;23.00;5.18;;;13.60;99.90;;;13.65;100.00;100792.41;5027773;28;20318;-81
2022/11/01 06:37:38;;;;;;;14.35;3.22;;;13.50;99.90;;;13.66;100.00;100786.22;5012779;28;20241;-81
2022/11/01 06:40:06;;;;;;;15.63;3.67;;;13.50;99.90;;;13.64;100.00;100798.63;5010369;28;20327;-82
2022/11/01 06:42:33;;;;;;;15.82;3.67;;;13.50;99.90;;;13.64;100.00;100793.31;5029363;28;20309;-81
2022/11/01 06:45:00;;;;;;;19.17;4.45;;;13.50;99.90;;;13.66;100.00;100797.75;5010858;28;20250;-82
2022/11/01 06:47:30;;;;;;;14.95;3.42;;;13.50;99.90;;;13.69;100.00;100800.41;5021830;28;20300;-81
2022/11/01 06:49:57;;;;;;;13.82;3.20;;;13.60;99.90;;;13.66;100.00;100795.09;5025696;28;20235;-81
2022/11/01 06:52:24;;;;;;;12.40;2.97;;;13.50;99.90;;;13.68;100.00;100803.94;5016960;28;20293;-81
2022/11/01 06:54:51;;;;;;;15.48;3.85;;;13.60;99.90;;;13.68;100.00;100805.72;5028774;28;20235;-81
2022/11/01 06:57:18;;;;;;;13.80;3.33;;;13.50;99.90;;;13.73;100.00;100814.59;5016361;28;20300;-81
2022/11/01 06:59:45;;;;;;;14.45;3.45;;;13.60;99.90;;;13.73;100.00;100815.47;5021320;28;20307;-81
2022/11/01 07:02:12;;;;;;;15.40;3.63;;;13.60;99.90;;;13.75;100.00;100826.13;5004871;28;20251;-81
2022/11/01 07:04:40;;;;;;;16.48;3.83;;;13.60;99.90;;;13.78;100.00;100827.00;5021423;28;20317;-81
2022/11/01 07:07:07;;;;;;;17.02;4.18;;;13.60;99.90;;;13.78;100.00;100837.63;5028052;28;20281;-80
2022/11/01 07:09:35;;;;;;;15.13;3.72;;;13.60;99.90;;;13.77;100.00;100838.53;5003458;28;20243;-81
2022/11/01 07:12:02;;;;;;;16.23;3.78;;;13.70;99.90;;;13.78;100.00;100836.75;5024952;28;20249;-82
2022/11/01 07:14:29;;;;;;;15.02;3.47;;;13.60;99.90;;;13.78;100.00;100840.28;5019085;28;20296;-81
2022/11/01 07:16:56;;;;;;;13.65;3.25;;;13.70;99.90;;;13.83;100.00;100852.72;5029108;28;20234;-81
2022/11/01 07:19:24;;;;;;;15.27;3.83;;;13.70;99.90;;;13.85;100.00;100848.28;5013583;28;20297;-81
2022/11/01 07:21:51;;;;;;;14.65;3.40;;;13.70;99.90;;;13.88;100.00;100861.59;5010209;28;20262;-81
2022/11/01 07:24:18;;;;;;;13.70;3.17;;;13.70;99.90;;;13.92;100.00;100860.72;5022382;28;20235;-81
2022/11/01 07:26:45;;;;;;;13.98;3.30;;;13.80;99.90;;;13.96;100.00;100855.41;5020175;28;20261;-81
2022/11/01 07:29:12;;;;;;;15.90;3.60;;;13.80;99.90;;;14.01;100.00;100863.38;5023570;28;20254;-81
2022/11/01 07:31:40;;;;;;;15.13;3.60;;;13.90;99.90;;;14.02;100.00;100862.50;5028731;28;20306;-81
2022/11/01 07:34:07;;;;;;;16.30;3.92;;;13.90;99.90;;;14.03;100.00;100867.81;5027798;28;20247;-81
2022/11/01 07:36:34;;;;;;;16.13;3.70;;;13.90;99.90;;;14.06;100.00;100874.91;5020156;28;20244;-81
2022/11/01 07:39:01;;;;;;;15.57;3.60;;;13.90;99.90;;;14.07;100.00;100858.97;5027971;28;20301;-81
2022/11/01 07:41:28;;;;;;;16.58;3.80;;;13.90;99.90;;;14.12;100.00;100855.41;5027549;28;20261;-81
2022/11/01 07:43:55;;;;;;;12.85;3.08;;;14.00;99.90;;;14.14;100.00;100866.94;5028525;28;20258;-80
2022/11/01 07:46:22;;;;;;;15.10;3.42;;;14.00;99.90;;;14.17;100.00;100870.50;5025368;28;20266;-81
2022/11/01 07:48:50;;;;;;;13.70;3.20;;;14.00;99.90;;;14.20;100.00;100877.59;4986670;28;20308;-81
2022/11/01 07:51:17;;;;;;;16.88;3.85;;;14.10;99.90;;;14.22;100.00;100862.53;5005469;28;20282;-81
2022/11/01 07:53:44;;;;;;;13.15;3.15;;;14.10;99.90;;;14.25;100.00;100860.75;5028017;28;20242;-81
2022/11/01 07:56:11;;;;;;;14.55;3.53;;;14.10;99.90;;;14.29;100.00;100853.66;5023142;28;20311;-81
2022/11/01 07:58:42;;;;;;;15.23;3.55;;;14.10;99.90;;;14.31;100.00;100851.94;5018581;28;20269;-80
2022/11/01 08:01:09;;;;;;;19.38;4.50;;;14.20;99.90;;;14.35;100.00;100856.34;5004810;28;20227;-80
2022/11/01 08:03:37;;;;;;;14.43;3.35;;;14.20;99.90;;;14.40;100.00;100858.13;5020152;28;20265;-81
2022/11/01 08:06:05;;;;;;;14.10;3.28;;;14.20;99.90;;;14.46;100.00;100859.94;5015313;28;20261;-81
2022/11/01 08:08:32;;;;;;;14.95;3.58;;;14.30;99.90;;;14.47;100.00;100851.06;5028840;28;20313;-80
2022/11/01 08:11:00;;;;;;;14.40;3.50;;;14.30;99.90;;;14.56;100.00;100861.72;5018549;28;20228;-80
2022/11/01 08:13:28;;;;;;;14.45;3.35;;;14.40;99.90;;;14.61;100.00;100867.03;5017460;28;20266;-80
2022/11/01 08:15:55;;;;;;;11.70;2.80;;;14.40;99.90;;;14.64;100.00;100859.03;5028686;28;20230;-80
2022/11/01 08:18:25;;;;;;;17.05;4.53;;;14.50;99.90;;;14.70;100.00;100872.34;5027345;28;20262;-80
2022/11/01 08:20:52;;;;;;;17.17;3.95;;;14.50;99.90;;;14.75;100.00;100875.00;5023392;28;20258;-80
2022/11/01 08:23:20;;;;;;;11.98;3.00;;;14.60;99.90;;;14.77;100.00;100874.13;5023791;28;20281;-81
2022/11/01 08:25:47;;;;;;;14.15;3.42;;;14.60;99.90;;;14.76;100.00;100871.47;5025923;28;20348;-81
2022/11/01 08:28:19;;;;;;;11.85;2.85;;;14.60;99.90;;;14.80;100.00;100875.88;5022985;28;20239;-81
2022/11/01 08:30:48;;;;;;;16.13;3.70;;;14.60;99.90;;;14.79;100.00;100868.78;5013306;28;20297;-81
2022/11/01 08:33:15;;;;;;;13.02;3.17;;;14.60;99.90;;;14.79;100.00;100876.78;5012745;28;20356;-81
2022/11/01 08:35:44;;;;;;;16.00;3.78;;;14.60;99.90;;;14.78;100.00;100873.22;4999572;28;20281;-81
2022/11/01 08:38:17;;;;;;;14.88;3.45;;;14.60;99.90;;;14.78;100.00;100877.66;5013761;28;20226;-81
2022/11/01 08:40:44;;;;;;;18.63;4.18;;;14.60;99.90;;;14.79;100.00;100885.66;5021394;28;20250;-81
2022/11/01 08:43:11;;;;;;;14.52;3.40;;;14.60;99.90;;;14.84;100.00;100893.63;5028035;28;20227;-81
2022/11/01 08:45:39;;;;;;;15.45;3.75;;;14.70;99.90;;;14.85;100.00;100898.06;5016412;28;20263;-81
2022/11/01 08:48:07;;;;;;;14.75;3.40;;;14.70;99.90;;;14.86;100.00;100900.75;5030822;28;20227;-81
2022/11/01 08:50:35;;;;;;;17.23;4.40;;;14.70;99.90;;;14.88;100.00;100903.41;5021514;28;20774;-81
2022/11/01 08:53:13;;;;;;;21.13;4.82;;;14.70;99.90;;;14.86;100.00;100902.50;5006448;28;20242;-81
2022/11/01 08:55:40;;;;;;;18.05;4.20;;;14.70;99.90;;;14.84;100.00;100910.50;5022039;28;20239;-81
2022/11/01 08:58:08;;;;;;;15.15;3.47;;;14.70;99.90;;;14.82;100.00;100909.63;5023912;28;20300;-80
2022/11/01 09:00:36;;;;;;;18.33;4.20;;;14.70;99.90;;;14.84;100.00;100915.81;5024187;28;20632;-80
2022/11/01 09:03:03;;;;;;;15.50;3.63;;;14.70;99.90;;;14.91;100.00;100916.72;5025815;28;20250;-81
2022/11/01 09:05:31;;;;;;;19.00;4.28;;;14.70;99.90;;;15.02;100.00;100931.78;5026315;28;20265;-82
2022/11/01 09:07:59;;;;;;;15.73;4.10;;;14.80;99.90;;;15.14;100.00;100938.88;5027214;28;20231;-80
2022/11/01 09:10:29;;;;;;;15.80;3.83;;;15.00;99.90;;;15.15;100.00;100937.97;5025793;28;20224;-80
2022/11/01 09:12:59;;;;;;;14.45;3.50;;;15.00;99.90;;;15.19;100.00;100938.88;5009050;28;20373;-81
2022/11/01 09:15:27;;;;;;;13.88;3.22;;;15.00;99.90;;;15.16;100.00;100934.44;4990734;28;20231;-81
2022/11/01 09:17:55;;;;;;;19.95;4.50;;;15.10;99.90;;;15.27;100.00;100934.41;4978554;28;20228;-80
2022/11/01 09:20:23;;;;;;;24.40;5.60;;;15.10;99.90;;;15.31;100.00;100938.84;5018113;28;20227;-81
2022/11/01 09:22:54;;;;;;;18.88;4.00;;;15.20;99.90;;;15.28;100.00;100934.41;5024091;28;20289;-81
2022/11/01 09:25:24;;;;;;;13.10;2.90;;;15.00;99.90;;;15.27;100.00;100932.63;5006104;28;20270;-81
2022/11/01 09:27:56;;;;;;;17.77;3.88;;;15.10;99.90;;;15.30;100.00;100934.41;5024926;28;20242;-81
2022/11/01 09:30:25;;;;;;;22.80;4.75;;;15.20;99.90;;;15.35;100.00;100944.16;5007668;28;20231;-81
2022/11/01 09:32:54;;;;;;;20.40;4.47;;;15.20;99.90;;;15.24;100.00;100923.75;5012535;28;20251;-80
2022/11/01 09:35:33;;;;;;;36.20;7.15;;;15.10;99.90;;;15.09;100.00;100898.03;5001277;28;20254;-79
2022/11/01 09:38:02;;;;;;;31.85;6.57;;;15.00;99.90;;;15.15;100.00;100884.69;4999106;28;20703;-80
2022/11/01 09:40:39;;;;;;;18.48;3.90;;;15.00;99.90;;;15.15;100.00;100870.50;4964552;28;20279;-79
2022/11/01 09:43:14;;;;;;;27.50;5.95;;;15.00;99.90;;;15.16;100.00;100854.50;4990344;28;20644;-81
2022/11/01 09:45:41;;;;;;;18.80;4.20;;;15.00;99.90;;;15.21;100.00;100849.16;5003435;28;20333;-80
2022/11/01 09:48:12;;;;;;;19.90;4.55;;;15.00;99.90;;;15.23;100.00;100839.38;5002981;28;20338;-80
2022/11/01 09:50:42;;;;;;;18.58;4.22;;;15.10;99.90;;;15.21;100.00;100814.53;5007239;28;20227;-78
2022/11/01 09:53:20;;;;;;;19.92;4.38;;;15.00;99.90;;;15.19;100.00;100805.66;5022426;28;20258;-80
2022/11/01 09:56:08;;;;;;;19.80;4.47;;;15.00;99.90;;;15.15;100.00;100790.56;5020117;28;20296;-81
2022/11/01 09:58:50;;;;;;;15.63;3.63;;;15.00;99.90;;;15.26;100.00;100778.09;5021836;28;20216;-81
2022/11/01 10:01:47;;;;;;;17.25;4.03;;;15.00;99.90;;;15.26;100.00;100780.75;5022799;28;20250;-80
2022/11/01 10:04:40;;;;;;;14.05;3.22;;;15.10;99.90;;;15.18;100.00;100766.59;5006791;28;20243;-81
2022/11/01 10:07:45;;;;;;;19.75;4.43;;;15.00;99.90;;;15.20;100.00;100772.78;5027620;28;20234;-80
2022/11/01 10:10:25;;;;;;;26.95;6.32;;;15.00;99.90;;;15.09;100.00;100767.50;4919023;28;20287;-80
2022/11/01 10:13:17;;;;;;;18.52;4.18;;;15.00;99.90;;;15.06;100.00;100756.88;5009133;28;20322;-79
2022/11/01 10:16:09;;;;;;;17.52;3.95;;;14.90;99.90;;;14.95;100.00;100740.94;5018131;28;20329;-81
2022/11/01 10:19:03;;;;;;;18.58;4.20;;;14.80;99.90;;;14.92;100.00;100758.69;5001851;28;20277;-81
2022/11/01 10:21:51;;;;;;;16.00;3.60;;;14.80;99.90;;;14.90;100.00;100760.47;5007960;28;20235;-81
2022/11/01 10:24:26;;;;;;;14.75;3.38;;;14.70;99.90;;;14.81;100.00;100725.91;5023895;28;20275;-81